Time;durP1;ratioP1;P1;durP2;ratioP2;P2;SDS_P1;SDS_P2;PMS_P1;PMS_P2;Temp;Humidity;BMP_temperature;BMP_pressure;BME280_temperature;BME280_humidity;BME280_pressure;Samples;Min_cycle;Max_cycle;Signal;HPM_P1;HPM_P2
2024/01/01 00:01:56;;;;;;;;;;;;;;;17.86;59.37;100948.63;7396502;19;1377;-39
2024/01/01 00:04:29;;;;;;;;;;;;;;;17.82;59.30;100949.81;7395763;19;1673;-39
2024/01/01 00:06:58;;;;;;;;;;;;;;;17.77;59.35;100947.53;7395447;19;1761;-38
2024/01/01 00:09:26;;;;;;;;;;;;;;;17.77;59.48;100950.19;7392882;19;1863;-39
2024/01/01 00:11:54;;;;;;;;;;;;;;;17.80;59.78;100954.44;7397075;19;1117;-39
2024/01/01 00:14:23;;;;;;;;;;;;;;;18.05;59.17;100953.34;7396431;19;1835;-39
2024/01/01 00:16:51;;;;;;;;;;;;;;;18.08;59.13;100945.06;7395990;19;2006;-39
2024/01/01 00:19:19;;;;;;;;;;;;;;;17.93;59.22;100957.88;7395572;19;1429;-39
2024/01/01 00:21:50;;;;;;;;;;;;;;;17.97;59.13;100953.13;7396609;19;1716;-39
2024/01/01 00:24:19;;;;;;;;;;;;;;;17.96;59.14;100962.13;7395697;19;1440;-39
2024/01/01 00:26:47;;;;;;;;;;;;;;;17.94;59.33;100956.88;7394147;19;1310;-39
2024/01/01 00:29:16;;;;;;;;;;;;;;;17.83;59.29;100960.44;7393692;19;1846;-39
2024/01/01 00:31:44;;;;;;;;;;;;;;;17.48;57.18;100965.88;7383357;19;1030;-39
2024/01/01 00:34:13;;;;;;;;;;;;;;;17.47;57.37;100956.16;7394659;19;1784;-39
2024/01/01 00:36:41;;;;;;;;;;;;;;;17.66;58.85;100950.19;7393704;19;1502;-39
2024/01/01 00:39:12;;;;;;;;;;;;;;;17.97;58.47;100977.22;7394101;19;1432;-39
2024/01/01 00:41:40;;;;;;;;;;;;;;;18.18;57.88;100951.34;7394254;19;1476;-39
2024/01/01 00:44:09;;;;;;;;;;;;;;;18.03;58.22;100953.47;7391939;19;1810;-39
2024/01/01 00:46:37;;;;;;;;;;;;;;;18.03;59.04;100957.97;7393411;19;1735;-39
2024/01/01 00:49:05;;;;;;;;;;;;;;;17.96;59.49;100949.59;7394401;19;1843;-39
2024/01/01 00:51:34;;;;;;;;;;;;;;;18.03;59.36;100947.28;7393660;19;1763;-39
2024/01/01 00:54:02;;;;;;;;;;;;;;;17.87;59.80;100950.34;7393934;19;1506;-39
2024/01/01 00:56:33;;;;;;;;;;;;;;;17.82;59.90;100945.31;7392921;19;1458;-39
2024/01/01 00:59:01;;;;;;;;;;;;;;;17.74;60.16;100960.28;7392036;19;1388;-39
2024/01/01 01:01:29;;;;;;;;;;;;;;;17.82;59.90;100957.84;7391680;19;1550;-39
2024/01/01 01:03:58;;;;;;;;;;;;;;;17.79;60.22;100956.28;7392807;19;1380;-39
2024/01/01 01:06:26;;;;;;;;;;;;;;;17.79;60.36;100953.59;7391224;19;1571;-39
2024/01/01 01:08:54;;;;;;;;;;;;;;;17.85;60.29;100952.28;7391987;19;1201;-39
2024/01/01 01:11:23;;;;;;;;;;;;;;;17.68;60.70;100938.38;7383910;19;1986;-38
2024/01/01 01:13:56;;;;;;;;;;;;;;;17.58;61.03;100940.09;7391671;19;1444;-39
2024/01/01 01:16:24;;;;;;;;;;;;;;;17.73;60.92;100955.94;7393019;19;1314;-38
2024/01/01 01:18:52;;;;;;;;;;;;;;;17.86;60.73;100920.03;7393272;19;1741;-39
2024/01/01 01:21:21;;;;;;;;;;;;;;;18.15;60.08;100938.25;7392760;19;1689;-39
2024/01/01 01:23:49;;;;;;;;;;;;;;;18.29;59.85;100948.66;7392010;19;1617;-40
2024/01/01 01:26:17;;;;;;;;;;;;;;;18.40;59.49;100931.72;7393318;19;1432;-39
2024/01/01 01:28:45;;;;;;;;;;;;;;;18.42;59.31;100936.94;7392616;19;1396;-39
2024/01/01 01:31:17;;;;;;;;;;;;;;;18.46;59.48;100935.69;7376661;19;1853;-39
2024/01/01 01:33:45;;;;;;;;;;;;;;;18.48;59.18;100939.97;7391998;19;1617;-38
2024/01/01 01:36:14;;;;;;;;;;;;;;;18.30;59.78;100941.47;7392529;19;1365;-39
2024/01/01 01:38:42;;;;;;;;;;;;;;;18.11;60.09;100922.56;7391814;19;1534;-39
2024/01/01 01:41:10;;;;;;;;;;;;;;;18.04;60.09;100932.91;7393490;19;1503;-39
2024/01/01 01:43:39;;;;;;;;;;;;;;;17.97;60.38;100929.06;7391171;19;1657;-39
2024/01/01 01:46:07;;;;;;;;;;;;;;;17.91;60.58;100926.88;7390125;19;1925;-39
2024/01/01 01:48:38;;;;;;;;;;;;;;;17.86;60.53;100927.22;7389002;19;1827;-39
2024/01/01 01:51:07;;;;;;;;;;;;;;;17.91;60.32;100925.03;7388808;19;1867;-39
2024/01/01 01:53:35;;;;;;;;;;;;;;;17.65;60.99;100919.09;7388153;19;1731;-38
2024/01/01 01:56:06;;;;;;;;;;;;;;;17.62;60.95;100922.84;7391532;19;1493;-39
2024/01/01 01:58:34;;;;;;;;;;;;;;;17.64;61.21;100922.72;7392371;19;1747;-39
2024/01/01 02:01:03;;;;;;;;;;;;;;;17.74;60.86;100912.16;7390159;19;1973;-39
2024/01/01 02:03:31;;;;;;;;;;;;;;;17.92;60.68;100915.19;7392012;19;1475;-39
2024/01/01 02:06:02;;;;;;;;;;;;;;;18.13;60.33;100909.91;7392658;19;1323;-39
2024/01/01 02:08:30;;;;;;;;;;;;;;;18.29;59.72;100919.22;7392483;19;1512;-39
2024/01/01 02:10:59;;;;;;;;;;;;;;;18.34;59.61;100909.94;7391773;19;1846;-39
2024/01/01 02:13:27;;;;;;;;;;;;;;;18.35;59.67;100900.94;7390868;19;1807;-45
2024/01/01 02:15:56;;;;;;;;;;;;;;;18.36;59.57;100902.63;7390962;19;1492;-38
2024/01/01 02:18:25;;;;;;;;;;;;;;;18.39;59.44;100913.09;7391131;19;1665;-39
2024/01/01 02:20:53;;;;;;;;;;;;;;;18.23;59.54;100868.88;7391642;19;1378;-39
2024/01/01 02:23:24;;;;;;;;;;;;;;;18.43;59.38;100890.44;7389417;19;1551;-39
2024/01/01 02:25:53;;;;;;;;;;;;;;;18.25;59.97;100911.56;7391308;19;1556;-39
2024/01/01 02:28:21;;;;;;;;;;;;;;;18.05;60.19;100902.50;7392073;19;1816;-39
2024/01/01 02:30:50;;;;;;;;;;;;;;;18.04;60.36;100908.81;7377376;19;1842;-39
2024/01/01 02:33:18;;;;;;;;;;;;;;;18.02;60.13;100908.09;7390171;19;1835;-39
2024/01/01 02:35:47;;;;;;;;;;;;;;;17.86;60.46;100908.50;7391119;19;1492;-39
2024/01/01 02:38:15;;;;;;;;;;;;;;;17.72;60.64;100893.53;7391107;19;1714;-39
2024/01/01 02:40:46;;;;;;;;;;;;;;;17.78;60.64;100890.34;7392224;19;1483;-39
2024/01/01 02:43:14;;;;;;;;;;;;;;;17.68;60.98;100897.44;7390091;19;1733;-39
2024/01/01 02:45:42;;;;;;;;;;;;;;;17.55;61.29;100869.97;7390327;19;1490;-39
2024/01/01 02:48:11;;;;;;;;;;;;;;;17.51;61.46;100885.44;7389695;19;1401;-39
2024/01/01 02:50:39;;;;;;;;;;;;;;;17.47;61.40;100863.44;7390939;19;1853;-39
2024/01/01 02:53:08;;;;;;;;;;;;;;;17.56;61.19;100875.19;7389976;19;1555;-38
2024/01/01 02:55:36;;;;;;;;;;;;;;;17.75;60.92;100882.59;7390054;19;1455;-39
2024/01/01 02:58:07;;;;;;;;;;;;;;;17.89;60.62;100878.84;7388862;19;1875;-39
2024/01/01 03:00:35;;;;;;;;;;;;;;;17.85;60.95;100888.09;7390958;19;1539;-39
2024/01/01 03:03:03;;;;;;;;;;;;;;;17.75;60.56;100876.41;7390904;19;1466;-39
2024/01/01 03:05:32;;;;;;;;;;;;;;;17.88;60.41;100871.78;7392114;19;1828;-39
2024/01/01 03:08:00;;;;;;;;;;;;;;;17.87;60.41;100892.34;7397957;19;1840;-39
2024/01/01 03:10:28;;;;;;;;;;;;;;;17.72;60.59;100866.78;7397367;19;1856;-39
2024/01/01 03:12:57;;;;;;;;;;;;;;;17.67;60.79;100874.34;7398069;19;1398;-39
2024/01/01 03:15:28;;;;;;;;;;;;;;;17.61;61.11;100869.50;7396584;19;1715;-39
2024/01/01 03:17:56;;;;;;;;;;;;;;;17.60;61.03;100863.28;7397257;19;1485;-39
2024/01/01 03:20:30;;;;;;;;;;;;;;;17.66;60.85;100861.94;7397546;19;1617;-39
2024/01/01 03:22:59;;;;;;;;;;;;;;;17.64;60.86;100858.53;7396827;19;1377;-39
2024/01/01 03:25:27;;;;;;;;;;;;;;;17.73;60.46;100841.75;7396262;19;1191;-39
2024/01/01 03:27:55;;;;;;;;;;;;;;;17.99;59.98;100869.06;7397905;19;1910;-39
2024/01/01 03:30:24;;;;;;;;;;;;;;;18.00;60.14;100869.91;7378183;19;1882;-39
2024/01/01 03:32:54;;;;;;;;;;;;;;;17.91;60.24;100860.00;7396283;19;1815;-39
2024/01/01 03:35:23;;;;;;;;;;;;;;;17.88;60.21;100853.88;7397790;19;1598;-39
2024/01/01 03:37:51;;;;;;;;;;;;;;;17.97;59.86;100859.47;7398462;19;1728;-39
2024/01/01 03:40:20;;;;;;;;;;;;;;;17.79;60.13;100845.75;7398270;19;964;-39
2024/01/01 03:42:48;;;;;;;;;;;;;;;17.77;60.36;100845.03;7394718;19;1553;-39
2024/01/01 03:45:16;;;;;;;;;;;;;;;17.57;60.72;100841.31;7398049;19;1680;-38
2024/01/01 03:47:45;;;;;;;;;;;;;;;17.65;60.89;100842.38;7397079;19;1682;-39
2024/01/01 03:50:16;;;;;;;;;;;;;;;17.60;60.99;100847.25;7397096;19;1853;-39
2024/01/01 03:52:45;;;;;;;;;;;;;;;17.62;60.96;100833.75;7396190;19;1836;-39
2024/01/01 03:55:15;;;;;;;;;;;;;;;17.55;60.91;100838.75;7397259;19;1764;-39
2024/01/01 03:57:44;;;;;;;;;;;;;;;17.68;60.87;100843.94;7396732;19;1558;-39
2024/01/01 04:00:13;;;;;;;;;;;;;;;17.86;60.33;100841.63;7396358;19;1937;-39
2024/01/01 04:02:42;;;;;;;;;;;;;;;18.13;59.92;100851.88;7397022;19;1792;-39
2024/01/01 04:05:11;;;;;;;;;;;;;;;18.26;59.54;100836.50;7396175;19;1962;-39
2024/01/01 04:07:42;;;;;;;;;;;;;;;18.34;59.30;100838.50;7395241;19;1365;-39
2024/01/01 04:10:11;;;;;;;;;;;;;;;18.34;59.39;100845.69;7394698;19;1849;-39
2024/01/01 04:12:39;;;;;;;;;;;;;;;18.28;59.57;100847.06;7394863;19;1443;-39
2024/01/01 04:15:05;;;;;;;;;;;;;;;18.28;59.61;100845.25;7396481;19;1807;-39
2024/01/01 04:17:34;;;;;;;;;;;;;;;18.22;59.94;100843.09;7393850;19;1653;-39
2024/01/01 04:20:02;;;;;;;;;;;;;;;18.24;59.93;100830.44;7394872;19;1258;-39
2024/01/01 04:22:31;;;;;;;;;;;;;;;18.29;59.73;100840.75;7396828;19;1542;-39
2024/01/01 04:25:01;;;;;;;;;;;;;;;18.31;59.37;100832.59;7394123;19;1050;-39
2024/01/01 04:27:30;;;;;;;;;;;;;;;18.28;59.56;100834.53;7395897;19;1922;-39
2024/01/01 04:29:58;;;;;;;;;;;;;;;18.24;59.58;100818.84;7395228;19;1729;-39
2024/01/01 04:32:27;;;;;;;;;;;;;;;18.14;59.59;100808.06;7378188;19;1850;-39
2024/01/01 04:34:55;;;;;;;;;;;;;;;18.23;59.76;100826.03;7395835;19;1831;-39
2024/01/01 04:37:24;;;;;;;;;;;;;;;18.43;59.11;100834.22;7393347;19;1392;-39
2024/01/01 04:39:52;;;;;;;;;;;;;;;18.43;59.09;100824.34;7394216;19;1799;-39
2024/01/01 04:42:23;;;;;;;;;;;;;;;18.45;59.18;100826.91;7394298;19;1414;-39
2024/01/01 04:44:52;;;;;;;;;;;;;;;18.40;59.50;100837.13;7393896;19;1235;-39
2024/01/01 04:47:22;;;;;;;;;;;;;;;18.34;59.38;100825.13;7395857;19;1728;-40
2024/01/01 04:49:50;;;;;;;;;;;;;;;18.36;59.62;100851.75;7395814;19;1030;-39
2024/01/01 04:52:18;;;;;;;;;;;;;;;18.37;59.82;100850.81;7392705;19;1867;-39
2024/01/01 04:54:47;;;;;;;;;;;;;;;18.38;59.60;100810.53;7394834;19;1811;-39
2024/01/01 04:57:15;;;;;;;;;;;;;;;18.36;59.49;100812.44;7392943;19;1485;-39
2024/01/01 04:59:46;;;;;;;;;;;;;;;18.31;59.64;100819.19;7394291;19;1349;-39
2024/01/01 05:02:15;;;;;;;;;;;;;;;18.31;59.80;100824.56;7394744;19;1176;-39
2024/01/01 05:04:43;;;;;;;;;;;;;;;18.31;59.56;100816.53;7394305;19;1733;-39
2024/01/01 05:07:11;;;;;;;;;;;;;;;18.32;59.47;100804.81;7393636;19;1678;-39
2024/01/01 05:09:40;;;;;;;;;;;;;;;18.58;58.75;100826.69;7394043;19;1535;-39
2024/01/01 05:12:08;;;;;;;;;;;;;;;18.56;58.78;100816.13;7391814;19;1871;-39
2024/01/01 05:14:39;;;;;;;;;;;;;;;18.54;59.09;100822.59;7393800;19;1188;-39
2024/01/01 05:17:10;;;;;;;;;;;;;;;18.47;59.16;100822.25;7394677;19;1485;-39
2024/01/01 05:19:39;;;;;;;;;;;;;;;18.43;59.37;100829.72;7395792;19;1370;-39
2024/01/01 05:22:07;;;;;;;;;;;;;;;18.24;59.77;100835.78;7394282;19;1799;-39
2024/01/01 05:24:36;;;;;;;;;;;;;;;18.19;59.67;100829.94;7392952;19;1918;-39
2024/01/01 05:27:07;;;;;;;;;;;;;;;17.91;59.90;100827.88;7394158;19;1666;-39
2024/01/01 05:29:35;;;;;;;;;;;;;;;17.89;60.22;100836.03;7394485;19;1477;-39
2024/01/01 05:32:04;;;;;;;;;;;;;;;18.22;59.66;100827.03;7377279;19;1879;-39
2024/01/01 05:34:35;;;;;;;;;;;;;;;18.32;59.48;100823.56;7393097;19;1820;-40
2024/01/01 05:37:03;;;;;;;;;;;;;;;18.34;59.58;100829.63;7393565;19;1856;-39
2024/01/01 05:39:31;;;;;;;;;;;;;;;18.32;59.53;100828.91;7393586;19;1639;-39
2024/01/01 05:42:00;;;;;;;;;;;;;;;18.36;59.39;100811.59;7391766;19;1683;-39
2024/01/01 05:44:28;;;;;;;;;;;;;;;18.41;59.38;100834.34;7394302;19;1121;-39
2024/01/01 05:46:57;;;;;;;;;;;;;;;18.35;59.47;100820.63;7393859;19;1810;-41
2024/01/01 05:49:25;;;;;;;;;;;;;;;18.39;59.29;100830.09;7390934;19;1792;-39
2024/01/01 05:51:56;;;;;;;;;;;;;;;18.34;59.49;100813.56;7390293;19;1850;-39
2024/01/01 05:54:24;;;;;;;;;;;;;;;18.38;59.42;100815.00;7393107;19;1376;-39
2024/01/01 05:56:53;;;;;;;;;;;;;;;18.52;58.98;100805.78;7392887;19;1654;-39
2024/01/01 05:59:21;;;;;;;;;;;;;;;18.52;58.88;100828.06;7392047;19;1467;-39
2024/01/01 06:01:49;;;;;;;;;;;;;;;18.54;59.22;100823.41;7392188;19;1393;-39
2024/01/01 06:04:18;;;;;;;;;;;;;;;18.45;59.37;100817.03;7391192;19;1661;-39
2024/01/01 06:06:46;;;;;;;;;;;;;;;18.45;59.36;100805.47;7391568;19;1709;-39
2024/01/01 06:09:18;;;;;;;;;;;;;;;18.44;59.59;100814.47;7392461;19;1495;-39
2024/01/01 06:11:47;;;;;;;;;;;;;;;18.53;59.19;100818.22;7391961;19;1842;-39
2024/01/01 06:14:16;;;;;;;;;;;;;;;18.45;59.36;100811.69;7391163;19;1445;-39
2024/01/01 06:16:45;;;;;;;;;;;;;;;18.52;59.07;100817.34;7391992;19;1758;-39
2024/01/01 06:19:13;;;;;;;;;;;;;;;18.47;59.33;100815.06;7392031;19;1789;-39
2024/01/01 06:21:41;;;;;;;;;;;;;;;18.48;59.39;100827.50;7392844;19;1528;-39
2024/01/01 06:24:10;;;;;;;;;;;;;;;18.43;59.50;100823.50;7392066;19;1459;-39
2024/01/01 06:26:41;;;;;;;;;;;;;;;18.39;59.34;100814.88;7391488;19;1555;-39
2024/01/01 06:29:09;;;;;;;;;;;;;;;18.47;59.06;100831.13;7391013;19;1493;-39
2024/01/01 06:31:37;;;;;;;;;;;;;;;18.59;58.84;100831.94;7375375;19;2365;-39
2024/01/01 06:34:05;;;;;;;;;;;;;;;18.63;58.85;100856.63;7390658;19;1591;-39
2024/01/01 06:36:34;;;;;;;;;;;;;;;18.58;58.89;100846.31;7391244;19;1806;-39
2024/01/01 06:39:03;;;;;;;;;;;;;;;18.52;59.27;100865.56;7390376;19;1484;-39
2024/01/01 06:41:31;;;;;;;;;;;;;;;18.48;59.30;100851.59;7394254;19;1465;-39
2024/01/01 06:44:02;;;;;;;;;;;;;;;18.44;59.33;100847.47;7398657;19;1851;-39
2024/01/01 06:46:30;;;;;;;;;;;;;;;18.51;59.37;100837.09;7395587;19;1783;-39
2024/01/01 06:48:59;;;;;;;;;;;;;;;18.49;59.22;100828.34;7398717;19;1813;-39
2024/01/01 06:51:27;;;;;;;;;;;;;;;18.50;59.27;100838.06;7396465;19;1860;-39
2024/01/01 06:53:55;;;;;;;;;;;;;;;18.51;59.26;100830.91;7397217;19;1209;-39
2024/01/01 06:56:24;;;;;;;;;;;;;;;18.53;59.17;100824.41;7395751;19;1769;-39
2024/01/01 06:58:52;;;;;;;;;;;;;;;18.56;59.18;100821.50;7398270;19;1558;-39
2024/01/01 07:01:23;;;;;;;;;;;;;;;18.53;59.03;100832.44;7396866;19;1680;-39
2024/01/01 07:03:51;;;;;;;;;;;;;;;18.53;59.33;100832.44;7398302;19;1165;-39
2024/01/01 07:06:19;;;;;;;;;;;;;;;18.53;59.03;100826.25;7399929;19;1007;-39
2024/01/01 07:08:48;;;;;;;;;;;;;;;18.48;59.18;100832.84;7399366;19;1041;-39
2024/01/01 07:11:16;;;;;;;;;;;;;;;18.49;59.33;100831.00;7397132;19;1871;-39
2024/01/01 07:13:45;;;;;;;;;;;;;;;18.53;59.33;100824.41;7397161;19;1374;-39
2024/01/01 07:16:13;;;;;;;;;;;;;;;18.53;59.16;100835.13;7398598;19;1736;-39
2024/01/01 07:18:44;;;;;;;;;;;;;;;18.48;59.25;100834.66;7396348;19;1344;-39
2024/01/01 07:21:12;;;;;;;;;;;;;;;18.51;59.04;100839.78;7396940;19;1703;-39
2024/01/01 07:23:41;;;;;;;;;;;;;;;18.54;59.13;100835.97;7395604;19;1771;-39
2024/01/01 07:26:09;;;;;;;;;;;;;;;18.52;59.14;100833.41;7398149;19;1688;-39
2024/01/01 07:28:38;;;;;;;;;;;;;;;18.48;59.29;100810.56;7395504;19;1712;-39
2024/01/01 07:31:06;;;;;;;;;;;;;;;18.51;59.16;100813.00;7394061;19;1772;-39
2024/01/01 07:33:34;;;;;;;;;;;;;;;18.52;59.26;100806.63;7374814;19;1881;-39
2024/01/01 07:36:06;;;;;;;;;;;;;;;18.53;59.35;100813.72;7395225;19;1436;-38
2024/01/01 07:38:34;;;;;;;;;;;;;;;18.55;59.16;100825.13;7397109;19;1736;-39
2024/01/01 07:41:03;;;;;;;;;;;;;;;18.53;59.45;100819.06;7398091;19;1007;-39
2024/01/01 07:43:32;;;;;;;;;;;;;;;18.54;59.22;100803.84;7395408;19;1903;-39
2024/01/01 07:46:00;;;;;;;;;;;;;;;18.57;59.25;100820.50;7397447;19;1523;-39
2024/01/01 07:48:29;;;;;;;;;;;;;;;18.53;59.13;100811.03;7395982;19;1823;-39
2024/01/01 07:50:57;;;;;;;;;;;;;;;18.59;59.26;100810.50;7391171;19;1406;-39
2024/01/01 07:53:28;;;;;;;;;;;;;;;18.67;58.89;100799.97;7389843;19;1868;-39
2024/01/01 07:55:56;;;;;;;;;;;;;;;18.80;58.60;100805.16;7394861;19;1388;-39
2024/01/01 07:58:25;;;;;;;;;;;;;;;18.86;58.53;100804.63;7395684;19;1373;-39
2024/01/01 08:00:55;;;;;;;;;;;;;;;18.91;58.40;100796.19;7395912;19;1360;-39
2024/01/01 08:03:23;;;;;;;;;;;;;;;18.87;58.40;100808.16;7395751;19;1390;-39
2024/01/01 08:05:51;;;;;;;;;;;;;;;18.94;58.03;100806.63;7396495;19;1220;-39
2024/01/01 08:08:20;;;;;;;;;;;;;;;19.00;57.61;100805.22;7394270;19;1169;-39
2024/01/01 08:10:53;;;;;;;;;;;;;;;18.99;57.48;100817.78;7395570;19;1470;-39
2024/01/01 08:13:21;;;;;;;;;;;;;;;19.04;57.24;100810.22;7391762;19;1869;-39
2024/01/01 08:15:50;;;;;;;;;;;;;;;19.12;57.33;100816.69;7394225;19;1551;-40
2024/01/01 08:18:18;;;;;;;;;;;;;;;19.22;57.03;100820.31;7395801;19;1551;-39
2024/01/01 08:20:47;;;;;;;;;;;;;;;19.15;56.97;100825.34;7395201;19;1449;-39
2024/01/01 08:23:15;;;;;;;;;;;;;;;19.17;57.23;100827.88;7395611;19;1502;-39
2024/01/01 08:25:43;;;;;;;;;;;;;;;19.18;57.47;100816.16;7393377;19;1249;-39
2024/01/01 08:28:14;;;;;;;;;;;;;;;19.31;57.22;100811.41;7392334;19;1834;-39
2024/01/01 08:30:43;;;;;;;;;;;;;;;19.28;57.39;100803.66;7395199;19;1496;-39
2024/01/01 08:33:13;;;;;;;;;;;;;;;19.38;57.24;100819.78;7375285;19;1874;-39
2024/01/01 08:35:41;;;;;;;;;;;;;;;19.34;57.18;100803.13;7393234;19;1364;-39
2024/01/01 08:38:09;;;;;;;;;;;;;;;19.41;57.17;100814.13;7395281;19;1823;-39
2024/01/01 08:40:38;;;;;;;;;;;;;;;19.42;57.35;100808.63;7394622;19;1503;-39
2024/01/01 08:43:06;;;;;;;;;;;;;;;19.43;57.21;100810.31;7394879;19;1781;-39
2024/01/01 08:45:37;;;;;;;;;;;;;;;19.48;57.47;100815.28;7394268;19;1220;-39
2024/01/01 08:48:07;;;;;;;;;;;;;;;19.51;57.68;100820.38;7392544;19;1462;-38
2024/01/01 08:50:35;;;;;;;;;;;;;;;19.55;57.56;100810.22;7394652;19;1479;-39
2024/01/01 08:53:04;;;;;;;;;;;;;;;19.55;57.62;100800.31;7391137;19;1847;-39
2024/01/01 08:55:32;;;;;;;;;;;;;;;19.55;57.41;100781.56;7392400;19;1571;-39
2024/01/01 08:58:00;;;;;;;;;;;;;;;19.63;57.21;100780.84;7393274;19;1601;-39
2024/01/01 09:00:29;;;;;;;;;;;;;;;19.68;57.24;100774.09;7393308;19;1522;-39
2024/01/01 09:02:59;;;;;;;;;;;;;;;19.61;57.43;100764.06;7394281;19;1491;-39
2024/01/01 09:05:28;;;;;;;;;;;;;;;19.66;56.77;100753.78;7387462;19;1496;-39
2024/01/01 09:07:56;;;;;;;;;;;;;;;19.71;57.70;100758.69;7392110;19;1341;-39
2024/01/01 09:10:24;;;;;;;;;;;;;;;19.41;58.37;100764.03;7389769;19;1522;-39
2024/01/01 09:12:53;;;;;;;;;;;;;;;19.16;58.79;100767.19;7390099;19;1850;-39
2024/01/01 09:15:21;;;;;;;;;;;;;;;18.94;59.43;100760.22;7392318;19;1344;-39
2024/01/01 09:17:50;;;;;;;;;;;;;;;18.90;60.10;100762.34;7392259;19;1393;-39
2024/01/01 09:20:22;;;;;;;;;;;;;;;19.14;60.89;100745.03;7392543;19;1463;-39
2024/01/01 09:22:51;;;;;;;;;;;;;;;19.51;60.65;100749.78;7392235;19;1556;-39
2024/01/01 09:25:19;;;;;;;;;;;;;;;19.52;60.82;100743.41;7393318;19;1215;-39
2024/01/01 09:27:47;;;;;;;;;;;;;;;19.28;61.50;100744.69;7392643;19;1490;-39
2024/01/01 09:30:16;;;;;;;;;;;;;;;19.12;61.89;100773.81;7393419;19;1538;-39
2024/01/01 09:32:45;;;;;;;;;;;;;;;18.98;62.47;100754.47;7377100;19;1864;-39
2024/01/01 09:35:13;;;;;;;;;;;;;;;19.13;62.42;100757.59;7392901;19;1310;-39
2024/01/01 09:37:44;;;;;;;;;;;;;;;19.57;61.01;100738.50;7392679;19;1319;-39
2024/01/01 09:40:13;;;;;;;;;;;;;;;19.71;61.06;100730.06;7392599;19;1827;-39
2024/01/01 09:42:48;;;;;;;;;;;;;;;19.50;61.49;100737.34;7386519;19;1489;-39
2024/01/01 09:45:16;;;;;;;;;;;;;;;19.22;62.25;100721.94;7391605;19;1578;-39
2024/01/01 09:47:45;;;;;;;;;;;;;;;19.01;62.73;100727.38;7390122;19;1586;-39
2024/01/01 09:50:14;;;;;;;;;;;;;;;18.86;62.80;100718.00;7393534;19;1196;-39
2024/01/01 09:52:45;;;;;;;;;;;;;;;19.12;62.63;100696.09;7388206;19;1907;-39
2024/01/01 09:55:14;;;;;;;;;;;;;;;19.44;61.72;100707.44;7389239;19;1741;-39
2024/01/01 09:57:42;;;;;;;;;;;;;;;19.50;61.66;100705.16;7389538;19;1609;-39
2024/01/01 10:00:21;;;;;;;;;;;;;;;19.25;62.13;100692.16;7385566;19;1391;-39
2024/01/01 10:02:49;;;;;;;;;;;;;;;19.07;62.43;100700.03;7387672;19;1856;-40
2024/01/01 10:05:18;;;;;;;;;;;;;;;18.90;62.94;100695.34;7389053;19;1395;-39
2024/01/01 10:07:50;;;;;;;;;;;;;;;19.10;62.84;100692.69;7386290;19;1479;-39
2024/01/01 10:10:29;;;;;;;;;;;;;;;19.57;62.37;100699.09;7386247;19;1402;-39
2024/01/01 10:13:08;;;;;;;;;;;;;;;19.70;61.97;100689.94;7389539;19;1873;-39
2024/01/01 10:15:38;;;;;;;;;;;;;;;19.44;62.54;100671.75;7387185;19;1443;-39
2024/01/01 10:18:10;;;;;;;;;;;;;;;19.24;62.92;100686.97;7390463;19;1395;-39
2024/01/01 10:20:40;;;;;;;;;;;;;;;19.06;63.05;100666.19;7387307;19;1598;-39
2024/01/01 10:23:25;;;;;;;;;;;;;;;19.11;63.21;100686.38;7390008;19;1181;-39
2024/01/01 10:26:03;;;;;;;;;;;;;;;19.44;62.55;100669.91;7388070;19;1269;-39
2024/01/01 10:28:32;;;;;;;;;;;;;;;19.66;61.59;100646.47;7390333;19;1200;-39
2024/01/01 10:31:02;;;;;;;;;;;;;;;19.61;61.46;100648.72;7390449;19;1435;-39
2024/01/01 10:33:32;;;;;;;;;;;;;;;19.42;62.75;100639.69;7375807;19;1836;-39
2024/01/01 10:36:02;;;;;;;;;;;;;;;19.30;64.38;100630.09;7390741;19;1569;-39
2024/01/01 10:38:30;;;;;;;;;;;;;;;19.17;64.80;100642.91;7390567;19;1074;-38
2024/01/01 10:41:02;;;;;;;;;;;;;;;19.13;66.12;100630.78;7388483;19;1412;-39
2024/01/01 10:43:30;;;;;;;;;;;;;;;19.39;65.21;100629.22;7390304;19;1515;-39
2024/01/01 10:46:00;;;;;;;;;;;;;;;19.58;65.15;100632.91;7386712;19;1224;-43
2024/01/01 10:48:29;;;;;;;;;;;;;;;19.53;65.14;100633.31;7387401;19;1372;-37
2024/01/01 10:51:02;;;;;;;;;;;;;;;19.33;67.03;100620.91;7386920;19;1443;-38
2024/01/01 10:53:39;;;;;;;;;;;;;;;19.11;66.90;100630.09;7387406;19;1875;-38
2024/01/01 10:56:16;;;;;;;;;;;;;;;18.99;66.84;100632.03;7389305;19;1443;-38
2024/01/01 10:58:53;;;;;;;;;;;;;;;19.11;66.39;100630.91;7389549;19;1578;-38
2024/01/01 11:01:22;;;;;;;;;;;;;;;19.31;65.49;100620.22;7390484;19;1236;-38
2024/01/01 11:03:51;;;;;;;;;;;;;;;19.50;64.85;100630.94;7383444;19;1586;-37
2024/01/01 11:06:28;;;;;;;;;;;;;;;19.35;64.78;100617.09;7387451;19;1518;-38
2024/01/01 11:08:56;;;;;;;;;;;;;;;19.03;64.81;100614.69;7387468;19;1599;-38
2024/01/01 11:11:31;;;;;;;;;;;;;;;18.84;65.32;100612.81;7387838;19;2564;-38
2024/01/01 11:14:00;;;;;;;;;;;;;;;18.89;65.29;100599.88;7384300;19;1851;-38
2024/01/01 11:16:28;;;;;;;;;;;;;;;19.32;63.90;100600.44;7388856;19;1444;-37
2024/01/01 11:18:56;;;;;;;;;;;;;;;19.51;63.46;100602.28;7387693;19;1475;-38
2024/01/01 11:21:26;;;;;;;;;;;;;;;19.40;63.37;100597.94;7387415;19;1591;-38
2024/01/01 11:23:54;;;;;;;;;;;;;;;19.06;64.09;100580.44;7386254;19;1436;-38
2024/01/01 11:26:34;;;;;;;;;;;;;;;18.85;64.84;100582.38;7386808;19;1929;-38
2024/01/01 11:29:03;;;;;;;;;;;;;;;18.71;65.14;100574.72;7392653;19;1547;-39
2024/01/01 11:31:32;;;;;;;;;;;;;;;19.01;64.36;100576.47;7393929;19;1823;-38
2024/01/01 11:34:05;;;;;;;;;;;;;;;19.15;64.28;100572.53;7380134;19;1869;-38
2024/01/01 11:36:33;;;;;;;;;;;;;;;19.25;63.81;100570.69;7394511;19;1290;-38
2024/01/01 11:39:02;;;;;;;;;;;;;;;19.34;63.81;100560.94;7394573;19;1321;-38
2024/01/01 11:41:33;;;;;;;;;;;;;;;19.34;63.33;100561.78;7391417;19;1512;-38
2024/01/01 11:44:11;;;;;;;;;;;;;;;19.39;63.24;100567.56;7393069;19;1351;-39
2024/01/01 11:46:39;;;;;;;;;;;;;;;19.47;63.30;100559.63;7393102;19;1594;-38
2024/01/01 11:49:08;;;;;;;;;;;;;;;19.51;63.10;100564.72;7393161;19;1451;-38
2024/01/01 11:51:49;;;;;;;;;;;;;;;19.53;63.12;100554.69;7394083;19;1314;-38
2024/01/01 11:54:18;;;;;;;;;;;;;;;19.56;62.96;100544.53;7390607;19;1865;-38
2024/01/01 11:56:52;;;;;;;;;;;;;;;19.58;63.10;100549.75;7394318;19;1674;-38
2024/01/01 11:59:22;;;;;;;;;;;;;;;19.70;62.21;100534.34;7393100;19;2057;-38
2024/01/01 12:01:51;;;;;;;;;;;;;;;19.62;62.38;100549.31;7392003;19;1506;-38
2024/01/01 12:04:20;;;;;;;;;;;;;;;19.61;62.28;100552.16;7393230;19;1518;-38
2024/01/01 12:06:51;;;;;;;;;;;;;;;19.65;62.01;100542.81;7393819;19;1486;-38
2024/01/01 12:09:21;;;;;;;;;;;;;;;19.74;61.49;100563.44;7394179;19;1517;-38
2024/01/01 12:11:52;;;;;;;;;;;;;;;19.74;61.65;100547.34;7391966;19;1557;-38
2024/01/01 12:14:26;;;;;;;;;;;;;;;19.63;61.05;100517.97;7392736;19;1861;-43
2024/01/01 12:16:54;;;;;;;;;;;;;;;19.78;61.30;100537.19;7392389;19;1552;-38
2024/01/01 12:19:23;;;;;;;;;;;;;;;19.89;60.79;100545.03;7393037;19;1477;-38
2024/01/01 12:21:52;;;;;;;;;;;;;;;19.96;60.86;100550.66;7393317;19;1828;-38
2024/01/01 12:24:21;;;;;;;;;;;;;;;19.99;60.86;100555.72;7396224;19;1311;-39
2024/01/01 12:26:54;;;;;;;;;;;;;;;19.99;60.74;100561.94;7396876;19;1385;-38
2024/01/01 12:29:23;;;;;;;;;;;;;;;20.04;60.76;100542.72;7395848;19;1397;-38
2024/01/01 12:31:53;;;;;;;;;;;;;;;20.03;60.54;100541.03;7392997;19;1023;-39
2024/01/01 12:34:22;;;;;;;;;;;;;;;20.07;60.48;100539.72;7375903;19;1874;-38
2024/01/01 12:36:50;;;;;;;;;;;;;;;20.10;60.79;100520.66;7391492;19;1696;-38
2024/01/01 12:39:20;;;;;;;;;;;;;;;19.85;61.07;100530.22;7390523;19;1571;-38
2024/01/01 12:41:48;;;;;;;;;;;;;;;19.56;62.06;100562.47;7393147;19;1038;-38
2024/01/01 12:44:19;;;;;;;;;;;;;;;19.16;63.14;100547.41;7392069;19;1520;-38
2024/01/01 12:46:47;;;;;;;;;;;;;;;18.92;63.38;100535.28;7393336;19;1563;-38
2024/01/01 12:49:15;;;;;;;;;;;;;;;18.79;63.73;100529.31;7395417;19;1469;-38
2024/01/01 12:51:44;;;;;;;;;;;;;;;19.02;63.17;100530.78;7396023;19;1503;-38
2024/01/01 12:54:13;;;;;;;;;;;;;;;19.44;62.39;100529.59;7393558;19;1855;-38
2024/01/01 12:56:41;;;;;;;;;;;;;;;19.47;62.09;100534.66;7393203;19;1376;-38
2024/01/01 12:59:10;;;;;;;;;;;;;;;19.20;62.72;100522.00;7394923;19;1748;-38